ABQ weather

Albuquerque International Sunport Airport
Albuquerque, New Mexico, United States

Public forecast

Using degrees Fahrenheit for public forecast. Weather courtesy of forecast.io.

METAR (pilot weather report)

Retrieved 2018/07/15 22:10 UTC (17 minutes ago):

KABQ 152210Z VRB04KT 10SM VCTS FEW065CB SCT080 SCT150 BKN200 31/12 A3009

TAF (pilot weather forecast)

Retrieved 2018/07/15 18:39 UTC (4 hours ago):

TAF KABQ 151737Z 1518/1618 19006KT P6SM FEW070 BKN150 FM152300 16006KT P6SM VCTS SCT060CB BKN130 TEMPO 1523/1602 VRB18G25KT -TSRA BKN060CB FM160200 09011KT P6SM VCSH BKN080 FM160800 06006KT P6SM SCT100